sensor_id;sensor_type;location;lat;lon;timestamp;temperature;humidity
64561;DHT22;50960;46.838;16.838;2022-10-28T03:02:33;12.70;99.90
64561;DHT22;50960;46.838;16.838;2022-10-28T03:05:00;12.70;99.90
64561;DHT22;50960;46.838;16.838;2022-10-28T03:07:26;12.70;99.90
64561;DHT22;50960;46.838;16.838;2022-10-28T03:09:52;12.70;99.90
64561;DHT22;50960;46.838;16.838;2022-10-28T03:12:18;12.70;99.90
64561;DHT22;50960;46.838;16.838;2022-10-28T03:14:44;12.70;99.90
64561;DHT22;50960;46.838;16.838;2022-10-28T03:17:11;12.70;99.90
64561;DHT22;50960;46.838;16.838;2022-10-28T03:19:37;12.70;99.90
64561;DHT22;50960;46.838;16.838;2022-10-28T03:22:03;12.70;99.90
64561;DHT22;50960;46.838;16.838;2022-10-28T03:24:29;12.70;99.90
64561;DHT22;50960;46.838;16.838;2022-10-28T03:26:56;12.80;99.90
64561;DHT22;50960;46.838;16.838;2022-10-28T03:29:22;12.80;99.90
64561;DHT22;50960;46.838;16.838;2022-10-28T03:31:48;12.80;99.90
64561;DHT22;50960;46.838;16.838;2022-10-28T03:34:14;12.80;99.90
64561;DHT22;50960;46.838;16.838;2022-10-28T03:36:41;12.80;99.90
64561;DHT22;50960;46.838;16.838;2022-10-28T03:39:07;12.70;99.90
64561;DHT22;50960;46.838;16.838;2022-10-28T03:41:33;12.80;99.90
64561;DHT22;50960;46.838;16.838;2022-10-28T03:43:59;12.80;99.90
64561;DHT22;50960;46.838;16.838;2022-10-28T03:46:26;12.80;99.90
64561;DHT22;50960;46.838;16.838;2022-10-28T03:48:52;12.70;99.90
64561;DHT22;50960;46.838;16.838;2022-10-28T03:51:18;12.70;99.90
64561;DHT22;50960;46.838;16.838;2022-10-28T03:53:44;12.70;99.90
64561;DHT22;50960;46.838;16.838;2022-10-28T03:56:11;12.70;99.90
64561;DHT22;50960;46.838;16.838;2022-10-28T03:58:37;12.60;99.90
64561;DHT22;50960;46.838;16.838;2022-10-28T04:01:03;12.60;99.90
64561;DHT22;50960;46.838;16.838;2022-10-28T04:03:30;12.60;99.90
64561;DHT22;50960;46.838;16.838;2022-10-28T04:05:56;12.60;99.90
64561;DHT22;50960;46.838;16.838;2022-10-28T04:08:22;12.50;99.90
64561;DHT22;50960;46.838;16.838;2022-10-28T04:10:48;12.50;99.90
64561;DHT22;50960;46.838;16.838;2022-10-28T04:13:15;12.50;99.90
64561;DHT22;50960;46.838;16.838;2022-10-28T04:15:42;12.50;99.90
64561;DHT22;50960;46.838;16.838;2022-10-28T04:18:08;12.50;99.90
64561;DHT22;50960;46.838;16.838;2022-10-28T04:20:35;12.50;99.90
64561;DHT22;50960;46.838;16.838;2022-10-28T04:23:01;12.40;99.90
64561;DHT22;50960;46.838;16.838;2022-10-28T04:25:28;12.40;99.90
64561;DHT22;50960;46.838;16.838;2022-10-28T04:27:54;12.40;99.90
64561;DHT22;50960;46.838;16.838;2022-10-28T04:30:21;12.40;99.90
64561;DHT22;50960;46.838;16.838;2022-10-28T04:32:47;12.40;99.90
64561;DHT22;50960;46.838;16.838;2022-10-28T04:35:13;12.40;99.90
64561;DHT22;50960;46.838;16.838;2022-10-28T04:37:40;12.40;99.90
64561;DHT22;50960;46.838;16.838;2022-10-28T04:40:08;12.40;99.90
64561;DHT22;50960;46.838;16.838;2022-10-28T04:42:34;12.40;99.90
64561;DHT22;50960;46.838;16.838;2022-10-28T04:45:00;12.40;99.90
64561;DHT22;50960;46.838;16.838;2022-10-28T04:47:27;12.40;99.90
64561;DHT22;50960;46.838;16.838;2022-10-28T04:49:53;12.40;99.90
64561;DHT22;50960;46.838;16.838;2022-10-28T04:52:19;12.30;99.90
64561;DHT22;50960;46.838;16.838;2022-10-28T04:54:45;12.30;99.90
64561;DHT22;50960;46.838;16.838;2022-10-28T04:57:12;12.30;99.90
64561;DHT22;50960;46.838;16.838;2022-10-28T04:59:38;12.30;99.90
64561;DHT22;50960;46.838;16.838;2022-10-28T05:02:04;12.20;99.90
64561;DHT22;50960;46.838;16.838;2022-10-28T05:04:30;12.30;99.90
64561;DHT22;50960;46.838;16.838;2022-10-28T05:06:57;12.30;99.90
64561;DHT22;50960;46.838;16.838;2022-10-28T12:32:34;17.30;90.90
64561;DHT22;50960;46.838;16.838;2022-10-28T12:37:46;17.40;91.60
64561;DHT22;50960;46.838;16.838;2022-10-28T12:40:44;17.40;91.20
64561;DHT22;50960;46.838;16.838;2022-10-28T12:45:49;18.10;90.00
64561;DHT22;50960;46.838;16.838;2022-10-28T12:57:11;17.40;91.20
64561;DHT22;50960;46.838;16.838;2022-10-28T13:00:02;16.90;92.30
64561;DHT22;50960;46.838;16.838;2022-10-28T13:02:34;17.10;92.70
64561;DHT22;50960;46.838;16.838;2022-10-28T13:05:04;17.20;92.60
64561;DHT22;50960;46.838;16.838;2022-10-28T13:10:30;16.90;93.10
64561;DHT22;50960;46.838;16.838;2022-10-28T13:13:02;16.70;94.00
64561;DHT22;50960;46.838;16.838;2022-10-28T13:27:02;16.50;95.30
64561;DHT22;50960;46.838;16.838;2022-10-28T13:29:32;16.40;95.70
64561;DHT22;50960;46.838;16.838;2022-10-28T13:32:00;16.50;96.10
64561;DHT22;50960;46.838;16.838;2022-10-28T13:34:37;16.40;96.20
64561;DHT22;50960;46.838;16.838;2022-10-28T13:37:15;16.60;96.60
64561;DHT22;50960;46.838;16.838;2022-10-28T13:39:45;16.60;96.40
64561;DHT22;50960;46.838;16.838;2022-10-28T13:44:49;16.70;96.50
64561;DHT22;50960;46.838;16.838;2022-10-28T13:52:43;16.60;96.70
64561;DHT22;50960;46.838;16.838;2022-10-28T13:57:42;16.70;96.80
64561;DHT22;50960;46.838;16.838;2022-10-28T14:05:22;16.70;96.50
64561;DHT22;50960;46.838;16.838;2022-10-28T14:08:00;16.70;96.70
64561;DHT22;50960;46.838;16.838;2022-10-28T14:13:00;16.70;96.50
64561;DHT22;50960;46.838;16.838;2022-10-28T14:15:31;16.60;96.80
64561;DHT22;50960;46.838;16.838;2022-10-28T14:18:20;16.60;97.10
64561;DHT22;50960;46.838;16.838;2022-10-28T14:41:40;16.90;97.20
64561;DHT22;50960;46.838;16.838;2022-10-28T14:49:54;17.00;96.90
64561;DHT22;50960;46.838;16.838;2022-10-28T14:52:22;17.40;96.90
64561;DHT22;50960;46.838;16.838;2022-10-28T14:54:53;18.00;94.60
64561;DHT22;50960;46.838;16.838;2022-10-28T14:57:27;18.20;94.00
64561;DHT22;50960;46.838;16.838;2022-10-28T14:59:54;18.30;93.90
64561;DHT22;50960;46.838;16.838;2022-10-28T15:02:27;18.20;93.70
64561;DHT22;50960;46.838;16.838;2022-10-28T15:05:01;18.10;93.60
64561;DHT22;50960;46.838;16.838;2022-10-28T15:07:28;17.90;93.90
64561;DHT22;50960;46.838;16.838;2022-10-28T15:09:55;17.70;94.40
64561;DHT22;50960;46.838;16.838;2022-10-28T15:12:24;17.40;95.00
64561;DHT22;50960;46.838;16.838;2022-10-28T15:14:55;17.20;96.00
64561;DHT22;50960;46.838;16.838;2022-10-28T15:17:25;17.10;96.20
64561;DHT22;50960;46.838;16.838;2022-10-28T15:19:54;17.00;96.50
64561;DHT22;50960;46.838;16.838;2022-10-28T15:22:28;16.80;97.20
64561;DHT22;50960;46.838;16.838;2022-10-28T15:25:03;16.60;97.60
64561;DHT22;50960;46.838;16.838;2022-10-28T15:27:34;16.50;98.20
64561;DHT22;50960;46.838;16.838;2022-10-28T15:30:03;16.30;98.40
64561;DHT22;50960;46.838;16.838;2022-10-28T15:32:32;16.20;99.00
64561;DHT22;50960;46.838;16.838;2022-10-28T15:35:22;16.10;99.40
64561;DHT22;50960;46.838;16.838;2022-10-28T15:37:45;15.90;99.90
64561;DHT22;50960;46.838;16.838;2022-10-28T15:40:30;15.70;99.90
64561;DHT22;50960;46.838;16.838;2022-10-28T15:43:05;15.60;99.90
64561;DHT22;50960;46.838;16.838;2022-10-28T15:45:33;15.40;99.90
64561;DHT22;50960;46.838;16.838;2022-10-28T15:48:01;15.30;99.90
64561;DHT22;50960;46.838;16.838;2022-10-28T15:50:35;15.20;99.90
64561;DHT22;50960;46.838;16.838;2022-10-28T15:53:41;15.10;99.90
64561;DHT22;50960;46.838;16.838;2022-10-28T15:59:01;15.00;99.90
64561;DHT22;50960;46.838;16.838;2022-10-28T16:01:30;14.90;99.90
64561;DHT22;50960;46.838;16.838;2022-10-28T16:04:00;14.90;99.90
64561;DHT22;50960;46.838;16.838;2022-10-28T16:06:30;14.90;99.90
64561;DHT22;50960;46.838;16.838;2022-10-28T16:11:39;14.90;99.90
64561;DHT22;50960;46.838;16.838;2022-10-28T16:16:51;14.90;99.90
64561;DHT22;50960;46.838;16.838;2022-10-28T16:19:27;15.00;99.90
64561;DHT22;50960;46.838;16.838;2022-10-28T16:21:54;14.90;99.90
64561;DHT22;50960;46.838;16.838;2022-10-28T16:24:20;14.90;99.90
64561;DHT22;50960;46.838;16.838;2022-10-28T16:26:47;14.90;99.90
64561;DHT22;50960;46.838;16.838;2022-10-28T16:29:13;14.90;99.90
64561;DHT22;50960;46.838;16.838;2022-10-28T16:31:40;14.90;99.90
64561;DHT22;50960;46.838;16.838;2022-10-28T16:34:12;14.80;99.90
64561;DHT22;50960;46.838;16.838;2022-10-28T16:36:39;14.90;99.90
64561;DHT22;50960;46.838;16.838;2022-10-28T16:39:12;14.90;99.90
64561;DHT22;50960;46.838;16.838;2022-10-28T16:41:38;14.90;99.90
64561;DHT22;50960;46.838;16.838;2022-10-28T16:44:16;14.90;99.90
64561;DHT22;50960;46.838;16.838;2022-10-28T16:46:43;14.80;99.90
64561;DHT22;50960;46.838;16.838;2022-10-28T16:49:09;14.90;99.90
64561;DHT22;50960;46.838;16.838;2022-10-28T16:51:35;14.90;99.90
64561;DHT22;50960;46.838;16.838;2022-10-28T16:54:02;14.90;99.90
64561;DHT22;50960;46.838;16.838;2022-10-28T16:56:28;14.80;99.90
64561;DHT22;50960;46.838;16.838;2022-10-28T16:58:54;14.90;99.90
64561;DHT22;50960;46.838;16.838;2022-10-28T17:01:21;14.90;99.90
64561;DHT22;50960;46.838;16.838;2022-10-28T17:03:47;14.80;99.90
64561;DHT22;50960;46.838;16.838;2022-10-28T17:06:13;14.90;99.90
64561;DHT22;50960;46.838;16.838;2022-10-28T17:08:40;14.90;99.90
64561;DHT22;50960;46.838;16.838;2022-10-28T17:11:07;14.90;99.90
64561;DHT22;50960;46.838;16.838;2022-10-28T17:13:34;14.90;99.90
64561;DHT22;50960;46.838;16.838;2022-10-28T17:16:00;14.90;99.90
64561;DHT22;50960;46.838;16.838;2022-10-28T17:18:26;14.90;99.90
64561;DHT22;50960;46.838;16.838;2022-10-28T17:21:02;14.90;99.90
64561;DHT22;50960;46.838;16.838;2022-10-28T17:23:28;14.80;99.90
64561;DHT22;50960;46.838;16.838;2022-10-28T17:25:58;14.90;99.90
64561;DHT22;50960;46.838;16.838;2022-10-28T17:28:25;14.90;99.90
64561;DHT22;50960;46.838;16.838;2022-10-28T17:30:51;14.90;99.90
64561;DHT22;50960;46.838;16.838;2022-10-28T17:33:18;14.90;99.90
64561;DHT22;50960;46.838;16.838;2022-10-28T17:35:45;14.90;99.90
64561;DHT22;50960;46.838;16.838;2022-10-28T17:38:11;14.90;99.90
64561;DHT22;50960;46.838;16.838;2022-10-28T17:40:37;14.80;99.90
64561;DHT22;50960;46.838;16.838;2022-10-28T17:43:03;14.80;99.90
64561;DHT22;50960;46.838;16.838;2022-10-28T17:45:30;14.80;99.90
64561;DHT22;50960;46.838;16.838;2022-10-28T17:47:58;14.80;99.90
64561;DHT22;50960;46.838;16.838;2022-10-28T17:50:24;14.80;99.90
64561;DHT22;50960;46.838;16.838;2022-10-28T17:52:51;14.80;99.90
64561;DHT22;50960;46.838;16.838;2022-10-28T17:55:17;14.80;99.90
64561;DHT22;50960;46.838;16.838;2022-10-28T17:57:44;14.80;99.90
64561;DHT22;50960;46.838;16.838;2022-10-28T18:00:10;14.80;99.90
64561;DHT22;50960;46.838;16.838;2022-10-28T18:02:37;14.70;99.90
64561;DHT22;50960;46.838;16.838;2022-10-28T18:05:05;14.70;99.90
64561;DHT22;50960;46.838;16.838;2022-10-28T18:07:31;14.70;99.90
64561;DHT22;50960;46.838;16.838;2022-10-28T18:09:57;14.70;99.90
64561;DHT22;50960;46.838;16.838;2022-10-28T18:12:23;14.70;99.90
64561;DHT22;50960;46.838;16.838;2022-10-28T18:14:50;14.70;99.90
64561;DHT22;50960;46.838;16.838;2022-10-28T18:17:16;14.70;99.90
64561;DHT22;50960;46.838;16.838;2022-10-28T18:19:42;14.60;99.90
64561;DHT22;50960;46.838;16.838;2022-10-28T18:22:09;14.60;99.90
64561;DHT22;50960;46.838;16.838;2022-10-28T18:24:35;14.60;99.90
64561;DHT22;50960;46.838;16.838;2022-10-28T18:27:01;14.60;99.90
64561;DHT22;50960;46.838;16.838;2022-10-28T18:29:27;14.60;99.90
64561;DHT22;50960;46.838;16.838;2022-10-28T18:31:54;14.60;99.90
64561;DHT22;50960;46.838;16.838;2022-10-28T18:34:21;14.50;99.90
64561;DHT22;50960;46.838;16.838;2022-10-28T18:36:48;14.50;99.90
64561;DHT22;50960;46.838;16.838;2022-10-28T18:39:15;14.50;99.90
64561;DHT22;50960;46.838;16.838;2022-10-28T18:41:41;14.50;99.90
64561;DHT22;50960;46.838;16.838;2022-10-28T18:44:13;14.50;99.90
64561;DHT22;50960;46.838;16.838;2022-10-28T18:46:41;14.60;99.90
64561;DHT22;50960;46.838;16.838;2022-10-28T18:49:10;14.60;99.90
64561;DHT22;50960;46.838;16.838;2022-10-28T18:51:36;14.60;99.90
64561;DHT22;50960;46.838;16.838;2022-10-28T18:54:03;14.50;99.90
64561;DHT22;50960;46.838;16.838;2022-10-28T18:56:29;14.50;99.90
64561;DHT22;50960;46.838;16.838;2022-10-28T18:58:57;14.60;99.90
64561;DHT22;50960;46.838;16.838;2022-10-28T19:01:25;14.50;99.90
64561;DHT22;50960;46.838;16.838;2022-10-28T19:03:53;14.50;99.90
64561;DHT22;50960;46.838;16.838;2022-10-28T19:06:20;14.50;99.90
64561;DHT22;50960;46.838;16.838;2022-10-28T19:08:54;14.50;99.90
64561;DHT22;50960;46.838;16.838;2022-10-28T19:11:22;14.50;99.90
64561;DHT22;50960;46.838;16.838;2022-10-28T19:13:50;14.50;99.90
64561;DHT22;50960;46.838;16.838;2022-10-28T19:16:16;14.50;99.90
64561;DHT22;50960;46.838;16.838;2022-10-28T19:18:43;14.50;99.90
64561;DHT22;50960;46.838;16.838;2022-10-28T19:21:12;14.50;99.90
64561;DHT22;50960;46.838;16.838;2022-10-28T19:23:39;14.40;99.90
64561;DHT22;50960;46.838;16.838;2022-10-28T19:26:07;14.40;99.90
64561;DHT22;50960;46.838;16.838;2022-10-28T19:28:44;14.50;99.90
64561;DHT22;50960;46.838;16.838;2022-10-28T19:31:13;14.40;99.90
64561;DHT22;50960;46.838;16.838;2022-10-28T19:33:40;14.40;99.90
64561;DHT22;50960;46.838;16.838;2022-10-28T19:36:26;14.40;99.90
64561;DHT22;50960;46.838;16.838;2022-10-28T19:38:53;14.40;99.90
64561;DHT22;50960;46.838;16.838;2022-10-28T19:41:23;14.40;99.90
64561;DHT22;50960;46.838;16.838;2022-10-28T19:43:54;14.40;99.90
64561;DHT22;50960;46.838;16.838;2022-10-28T19:46:21;14.30;99.90
64561;DHT22;50960;46.838;16.838;2022-10-28T19:48:52;14.30;99.90
64561;DHT22;50960;46.838;16.838;2022-10-28T19:51:27;14.30;99.90
64561;DHT22;50960;46.838;16.838;2022-10-28T19:53:58;14.30;99.90
64561;DHT22;50960;46.838;16.838;2022-10-28T19:56:26;14.30;99.90
64561;DHT22;50960;46.838;16.838;2022-10-28T19:58:55;14.30;99.90
64561;DHT22;50960;46.838;16.838;2022-10-28T20:01:23;14.30;99.90
64561;DHT22;50960;46.838;16.838;2022-10-28T20:03:50;14.30;99.90
64561;DHT22;50960;46.838;16.838;2022-10-28T20:06:20;14.30;99.90
64561;DHT22;50960;46.838;16.838;2022-10-28T20:08:47;14.30;99.90
64561;DHT22;50960;46.838;16.838;2022-10-28T20:11:16;14.30;99.90
64561;DHT22;50960;46.838;16.838;2022-10-28T20:13:43;14.30;99.90
64561;DHT22;50960;46.838;16.838;2022-10-28T20:16:12;14.30;99.90
64561;DHT22;50960;46.838;16.838;2022-10-28T20:18:39;14.30;99.90
64561;DHT22;50960;46.838;16.838;2022-10-28T20:21:08;14.20;99.90
64561;DHT22;50960;46.838;16.838;2022-10-28T20:23:35;14.20;99.90
64561;DHT22;50960;46.838;16.838;2022-10-28T20:26:03;14.20;99.90
64561;DHT22;50960;46.838;16.838;2022-10-28T20:28:30;14.20;99.90
64561;DHT22;50960;46.838;16.838;2022-10-28T20:31:04;14.20;99.90
64561;DHT22;50960;46.838;16.838;2022-10-28T20:33:32;14.20;99.90
64561;DHT22;50960;46.838;16.838;2022-10-28T20:35:59;14.20;99.90
64561;DHT22;50960;46.838;16.838;2022-10-28T20:38:26;14.20;99.90
64561;DHT22;50960;46.838;16.838;2022-10-28T20:40:55;14.20;99.90
64561;DHT22;50960;46.838;16.838;2022-10-28T20:43:23;14.20;99.90
64561;DHT22;50960;46.838;16.838;2022-10-28T20:45:55;14.20;99.90
64561;DHT22;50960;46.838;16.838;2022-10-28T20:48:23;14.20;99.90
64561;DHT22;50960;46.838;16.838;2022-10-28T20:50:51;14.20;99.90
64561;DHT22;50960;46.838;16.838;2022-10-28T20:53:19;14.10;99.90
64561;DHT22;50960;46.838;16.838;2022-10-28T20:55:48;14.10;99.90
64561;DHT22;50960;46.838;16.838;2022-10-28T20:58:14;14.10;99.90
64561;DHT22;50960;46.838;16.838;2022-10-28T21:00:40;14.00;99.90
64561;DHT22;50960;46.838;16.838;2022-10-28T21:03:06;14.00;99.90
64561;DHT22;50960;46.838;16.838;2022-10-28T21:05:33;14.00;99.90
